Terminal Aerodrome Forecast
Issued by NWS Hastings, NE

Current Version | Previous Version | Text Only | Print | Product List | Glossary On
Versions: 1 2 3 4 5 6 7 8 9 10 11 12 13 14 15 16 17 18 19 20 21 22 23 24 25 26 27 28 29 30 31 32 33 34 35 36 37 38 39 40 41 42 43
000
FTUS43 KGID 252320
TAFGRI
TAF
KGRI 252320Z 2600/2624 07009KT 5SM BR OVC006
     FM261000 07010KT 3SM BR OVC003
     FM261600 08011KT P6SM OVC010
     FM262100 07011KT P6SM BKN035=

USA.gov is the U.S. government's official web portal to all federal, state and local government web resources and services.